createdAt,value
2022-12-01T00:01:20.412Z,0.56
2022-12-01T00:03:49.696Z,0.56
2022-12-01T00:06:19.890Z,0.55
2022-12-01T00:09:03.086Z,0.54
2022-12-01T00:11:31.142Z,0.52
2022-12-01T00:13:58.986Z,0.51
2022-12-01T00:16:26.905Z,0.51
2022-12-01T00:18:56.376Z,0.50
2022-12-01T00:21:25.621Z,0.54
2022-12-01T00:23:55.481Z,0.56
2022-12-01T00:26:24.380Z,0.58
2022-12-01T00:28:53.283Z,0.59
2022-12-01T00:31:21.330Z,0.59
2022-12-01T00:33:49.224Z,0.60
2022-12-01T00:36:19.421Z,0.59
2022-12-01T00:38:47.548Z,0.58
2022-12-01T00:41:15.622Z,0.59
2022-12-01T00:43:43.419Z,0.61
2022-12-01T00:46:11.320Z,0.61
2022-12-01T00:48:39.258Z,0.62
2022-12-01T00:51:07.351Z,0.65
2022-12-01T00:53:36.557Z,0.66
2022-12-01T00:56:04.521Z,0.68
2022-12-01T00:58:32.322Z,0.68
2022-12-01T01:01:01.096Z,0.69
2022-12-01T01:03:29.683Z,0.70
2022-12-01T01:05:57.573Z,0.72
2022-12-01T01:08:25.727Z,0.69
2022-12-01T01:10:54.962Z,0.67
2022-12-01T01:13:22.930Z,0.68
2022-12-01T01:15:59.128Z,0.69
2022-12-01T01:18:27.037Z,0.72
2022-12-01T01:20:59.107Z,0.72
2022-12-01T01:23:27.765Z,0.74
2022-12-01T01:26:02.235Z,0.76
2022-12-01T01:28:31.433Z,0.76
2022-12-01T01:30:59.862Z,0.76
2022-12-01T01:33:27.750Z,0.76
2022-12-01T01:35:59.398Z,0.77
2022-12-01T01:38:27.284Z,0.77
2022-12-01T01:40:56.558Z,0.77
2022-12-01T01:43:44.977Z,0.79
2022-12-01T01:46:14.551Z,0.80
2022-12-01T01:48:44.928Z,0.82
2022-12-01T01:51:15.612Z,0.83
2022-12-01T01:53:44.670Z,0.82
2022-12-01T01:56:13.903Z,0.83
2022-12-01T01:58:42.648Z,0.84
2022-12-01T02:01:10.516Z,0.84
2022-12-01T02:03:40.990Z,0.86
2022-12-01T02:06:10.496Z,0.88
2022-12-01T02:08:38.506Z,0.88
2022-12-01T02:11:29.240Z,0.88
2022-12-01T02:14:10.866Z,0.89
2022-12-01T02:16:45.565Z,0.90
2022-12-01T02:19:37.679Z,0.91
2022-12-01T02:22:18.854Z,0.93
2022-12-01T02:25:09.210Z,0.90
2022-12-01T02:27:52.801Z,0.88
2022-12-01T02:30:33.549Z,0.88
2022-12-01T02:33:08.573Z,0.90
2022-12-01T02:35:44.120Z,0.90
2022-12-01T02:38:19.170Z,0.92
2022-12-01T02:40:53.308Z,0.91
2022-12-01T02:43:30.334Z,0.90
2022-12-01T02:46:06.334Z,0.93
2022-12-01T02:48:35.701Z,0.93
2022-12-01T02:51:11.930Z,0.93
2022-12-01T02:53:39.924Z,0.93
2022-12-01T02:56:12.138Z,0.94
2022-12-01T02:58:40.385Z,0.96
2022-12-01T03:01:29.548Z,0.95
2022-12-01T03:04:05.301Z,0.94
2022-12-01T03:06:42.557Z,0.97
2022-12-01T03:09:21.690Z,0.93
2022-12-01T03:11:57.906Z,0.95
2022-12-01T03:14:37.266Z,0.99
2022-12-01T03:17:09.830Z,0.99
2022-12-01T03:19:43.719Z,1.01
2022-12-01T03:22:15.368Z,1.02
2022-12-01T03:24:47.534Z,1.02
2022-12-01T03:27:18.430Z,1.02
2022-12-01T03:29:49.721Z,1.02
2022-12-01T03:32:23.849Z,0.99
2022-12-01T03:34:56.522Z,0.96
2022-12-01T03:37:31.804Z,0.98
2022-12-01T03:40:01.702Z,1.00
2022-12-01T03:42:32.949Z,0.96
2022-12-01T03:45:05.990Z,0.96
2022-12-01T03:47:37.703Z,0.99
2022-12-01T03:50:07.982Z,1.00
2022-12-01T03:52:42.066Z,0.98
2022-12-01T03:55:14.272Z,0.97
2022-12-01T03:57:47.918Z,0.97
2022-12-01T04:00:16.992Z,0.98
2022-12-01T04:02:46.394Z,1.00
2022-12-01T04:05:14.298Z,1.02
2022-12-01T04:07:42.157Z,1.04
2022-12-01T04:10:10.696Z,1.07
2022-12-01T04:12:37.542Z,1.10
2022-12-01T04:15:08.047Z,1.11
2022-12-01T04:17:35.966Z,1.10
2022-12-01T04:20:06.576Z,1.08
2022-12-01T04:22:34.917Z,1.11
2022-12-01T04:25:02.837Z,1.13
2022-12-01T04:27:30.671Z,1.14
2022-12-01T04:29:58.464Z,1.15
2022-12-01T04:32:26.669Z,1.14
2022-12-01T04:34:54.631Z,1.14
2022-12-01T04:37:23.802Z,1.12
2022-12-01T04:39:52.027Z,1.11
2022-12-01T04:42:20.486Z,1.11
2022-12-01T04:44:48.311Z,1.13
2022-12-01T04:47:16.105Z,1.15
2022-12-01T04:49:43.933Z,1.15
2022-12-01T04:52:11.961Z,1.14
2022-12-01T04:54:41.262Z,1.15
2022-12-01T04:57:09.084Z,1.17
2022-12-01T04:59:36.932Z,1.17
2022-12-01T05:02:04.873Z,1.20
2022-12-01T05:04:34.156Z,1.21
2022-12-01T05:07:01.988Z,1.22
2022-12-01T05:09:29.793Z,1.20
2022-12-01T05:11:58.974Z,1.20
2022-12-01T05:14:26.850Z,1.22
2022-12-01T05:16:55.978Z,1.25
2022-12-01T05:19:41.046Z,1.22
2022-12-01T05:22:08.843Z,1.19
2022-12-01T05:24:36.913Z,1.18
2022-12-01T05:27:06.080Z,1.23
2022-12-01T05:29:34.255Z,1.20
2022-12-01T05:32:03.100Z,1.20
2022-12-01T05:34:31.014Z,1.19
2022-12-01T05:37:01.909Z,1.20
2022-12-01T05:39:29.998Z,1.19
2022-12-01T05:41:57.847Z,1.20
2022-12-01T05:44:29.333Z,1.22
2022-12-01T05:46:57.129Z,1.23
2022-12-01T05:49:24.966Z,1.23
2022-12-01T05:51:52.793Z,1.22
2022-12-01T05:54:20.650Z,1.22
2022-12-01T05:56:48.469Z,1.23
2022-12-01T05:59:16.357Z,1.23
2022-12-01T06:01:45.615Z,1.22
2022-12-01T06:04:13.914Z,1.21
2022-12-01T06:06:41.746Z,1.23
2022-12-01T06:09:09.831Z,1.24
2022-12-01T06:11:37.670Z,1.22
2022-12-01T06:14:05.806Z,1.21
2022-12-01T06:16:33.666Z,1.22
2022-12-01T06:19:02.918Z,1.18
2022-12-01T06:21:30.735Z,1.19
2022-12-01T06:23:58.558Z,1.21
2022-12-01T06:26:26.449Z,1.23
2022-12-01T06:28:54.261Z,1.23
2022-12-01T06:31:22.140Z,1.21
2022-12-01T06:33:50.007Z,1.24
2022-12-01T06:36:19.214Z,1.23
2022-12-01T06:38:47.010Z,1.24
2022-12-01T06:41:14.806Z,1.25
2022-12-01T06:43:42.728Z,1.24
2022-12-01T06:46:10.633Z,1.23
2022-12-01T06:48:40.739Z,1.25
2022-12-01T06:51:10.881Z,1.25
2022-12-01T06:53:40.256Z,1.23
2022-12-01T06:56:08.815Z,1.23
2022-12-01T06:58:36.989Z,1.22
2022-12-01T07:01:09.609Z,1.21
2022-12-01T07:03:37.513Z,1.20
2022-12-01T07:06:05.877Z,1.21
2022-12-01T07:08:34.146Z,1.21
2022-12-01T07:11:05.318Z,1.21
2022-12-01T07:13:34.095Z,1.21
2022-12-01T07:16:03.236Z,1.19
2022-12-01T07:18:31.548Z,1.19
2022-12-01T07:21:01.297Z,1.20
2022-12-01T07:23:29.177Z,1.20
2022-12-01T07:26:01.122Z,1.19
2022-12-01T07:28:30.689Z,1.18
2022-12-01T07:31:03.864Z,1.17
2022-12-01T07:33:32.143Z,1.18
2022-12-01T07:36:00.234Z,1.17
2022-12-01T07:38:28.969Z,1.19
2022-12-01T07:41:02.284Z,1.19
2022-12-01T07:43:32.649Z,1.17
2022-12-01T07:46:08.781Z,1.16
2022-12-01T07:48:37.507Z,1.16
2022-12-01T07:51:06.057Z,1.17
2022-12-01T07:53:34.221Z,1.19
2022-12-01T07:56:08.208Z,1.19
2022-12-01T07:58:38.448Z,1.17
2022-12-01T08:01:12.129Z,1.16
2022-12-01T08:03:40.119Z,1.17
2022-12-01T08:06:09.183Z,1.17
2022-12-01T08:08:39.138Z,1.19
2022-12-01T08:11:08.674Z,1.20
2022-12-01T08:13:37.916Z,1.20
2022-12-01T08:16:06.476Z,1.21
2022-12-01T08:18:35.517Z,1.22
2022-12-01T08:21:03.507Z,1.24
2022-12-01T08:23:31.534Z,1.23
2022-12-01T08:26:02.067Z,1.23
2022-12-01T08:28:30.194Z,1.24
2022-12-01T08:30:59.469Z,1.24
2022-12-01T08:33:27.305Z,1.26
2022-12-01T08:35:55.307Z,1.29
2022-12-01T08:38:23.171Z,1.31
2022-12-01T08:40:50.985Z,1.32
2022-12-01T08:43:49.490Z,1.32
2022-12-01T08:46:08.667Z,1.35
2022-12-01T08:48:36.817Z,1.34
2022-12-01T08:51:06.616Z,1.38
2022-12-01T08:53:35.635Z,1.38
2022-12-01T08:56:05.565Z,1.40
2022-12-01T08:58:33.569Z,1.39
2022-12-01T09:01:07.694Z,1.39
2022-12-01T09:03:38.306Z,1.41
2022-12-01T09:06:08.607Z,1.42
2022-12-01T09:08:37.953Z,1.43
2022-12-01T09:11:08.170Z,1.46
2022-12-01T09:13:36.452Z,1.45
2022-12-01T09:16:06.208Z,1.49
2022-12-01T09:18:34.328Z,1.51
2022-12-01T09:21:11.293Z,1.50
2022-12-01T09:23:39.680Z,1.52
2022-12-01T09:26:13.234Z,1.53
2022-12-01T09:28:41.573Z,1.55
2022-12-01T09:31:12.837Z,1.54
2022-12-01T09:33:40.953Z,1.54
2022-12-01T09:36:11.080Z,1.53
2022-12-01T09:38:39.403Z,1.50
2022-12-01T09:41:16.511Z,1.53
2022-12-01T09:43:49.153Z,1.54
2022-12-01T09:46:21.460Z,1.55
2022-12-01T09:48:52.290Z,1.55
2022-12-01T09:51:23.849Z,1.58
2022-12-01T09:53:54.018Z,1.61
2022-12-01T09:56:23.001Z,1.58
2022-12-01T09:58:53.922Z,1.61
2022-12-01T10:01:32.273Z,1.61
2022-12-01T10:04:06.949Z,1.62
2022-12-01T10:06:40.384Z,1.63
2022-12-01T10:09:20.630Z,1.64
2022-12-01T10:11:49.108Z,1.61
2022-12-01T10:14:20.364Z,1.64
2022-12-01T10:17:00.889Z,1.65
2022-12-01T10:19:32.965Z,1.64
2022-12-01T10:22:17.941Z,1.65
2022-12-01T10:24:54.849Z,1.66
2022-12-01T10:27:35.364Z,1.64
2022-12-01T10:30:06.998Z,1.65
2022-12-01T10:32:45.862Z,1.68
2022-12-01T10:35:17.605Z,1.68
2022-12-01T10:37:48.171Z,1.68
2022-12-01T10:40:17.806Z,1.70
2022-12-01T10:42:47.567Z,1.70
2022-12-01T10:45:18.259Z,1.71
2022-12-01T10:48:09.089Z,1.72
2022-12-01T10:50:37.887Z,1.73
2022-12-01T10:53:07.079Z,1.75
2022-12-01T10:55:37.825Z,1.77
2022-12-01T10:58:16.269Z,1.79
2022-12-01T11:01:01.445Z,1.79
2022-12-01T11:03:32.878Z,1.82
2022-12-01T11:06:02.785Z,1.83
2022-12-01T11:08:44.772Z,1.82
2022-12-01T11:11:26.816Z,1.82
2022-12-01T11:13:55.888Z,1.82
2022-12-01T11:16:45.207Z,1.83
2022-12-01T11:19:27.152Z,1.84
2022-12-01T11:21:57.165Z,1.86
2022-12-01T11:24:42.230Z,1.85
2022-12-01T11:27:21.197Z,1.81
2022-12-01T11:29:51.449Z,1.82
2022-12-01T11:32:23.560Z,1.82
2022-12-01T11:34:56.659Z,1.81
2022-12-01T11:37:27.067Z,1.82
2022-12-01T11:40:08.189Z,1.83
2022-12-01T11:42:37.082Z,1.80
2022-12-01T11:45:08.726Z,1.79
2022-12-01T11:47:36.610Z,1.80
2022-12-01T11:50:23.742Z,1.79
2022-12-01T11:52:51.588Z,1.80
2022-12-01T11:55:25.601Z,1.82
2022-12-01T11:57:56.122Z,1.84
2022-12-01T12:00:26.356Z,1.83
2022-12-01T12:03:07.970Z,1.81
2022-12-01T12:05:49.130Z,1.84
2022-12-01T12:08:31.953Z,1.84
2022-12-01T12:11:13.335Z,1.85
2022-12-01T12:13:59.007Z,1.86
2022-12-01T12:16:39.585Z,1.85
2022-12-01T12:19:33.706Z,1.83
2022-12-01T12:22:14.061Z,1.84
2022-12-01T12:24:54.344Z,1.85
2022-12-01T12:27:28.799Z,1.84
2022-12-01T12:30:10.492Z,1.85
2022-12-01T12:32:52.892Z,1.84
2022-12-01T12:35:32.025Z,1.84
2022-12-01T12:38:08.794Z,1.84
2022-12-01T12:40:43.543Z,1.83
2022-12-01T12:43:23.008Z,1.88
2022-12-01T12:46:00.983Z,1.87
2022-12-01T12:49:18.115Z,1.88
2022-12-01T12:51:40.358Z,1.88
2022-12-01T12:54:23.164Z,1.89
2022-12-01T12:56:56.096Z,1.88
2022-12-01T12:59:31.280Z,1.88
2022-12-01T13:02:05.811Z,1.90
2022-12-01T13:04:41.921Z,1.88
2022-12-01T13:07:30.139Z,1.86
2022-12-01T13:10:02.371Z,1.88
2022-12-01T13:12:31.788Z,1.91
2022-12-01T13:15:13.029Z,1.91
2022-12-01T13:17:44.846Z,1.89
2022-12-01T13:20:16.027Z,1.89
2022-12-01T13:22:44.307Z,1.90
2022-12-01T13:25:15.053Z,1.91
2022-12-01T13:27:45.105Z,1.88
2022-12-01T13:30:23.648Z,1.87
2022-12-01T13:33:00.167Z,1.85
2022-12-01T13:35:32.058Z,1.83
2022-12-01T13:38:21.824Z,1.85
2022-12-01T13:40:50.240Z,1.85
2022-12-01T13:43:20.922Z,1.83
2022-12-01T13:45:51.227Z,1.84
2022-12-01T13:48:30.925Z,1.83
2022-12-01T13:51:01.735Z,1.81
2022-12-01T13:53:32.194Z,1.79
2022-12-01T13:56:06.621Z,1.80
2022-12-01T13:58:46.166Z,1.77
2022-12-01T14:01:50.524Z,1.76
2022-12-01T14:04:32.784Z,1.73
2022-12-01T14:07:24.788Z,1.73
2022-12-01T14:09:54.488Z,1.73
2022-12-01T14:12:26.172Z,1.72
2022-12-01T14:14:59.686Z,1.72
2022-12-01T14:17:32.779Z,1.72
2022-12-01T14:20:08.709Z,1.72
2022-12-01T14:22:39.777Z,1.71
2022-12-01T14:25:25.806Z,1.71
2022-12-01T14:27:56.045Z,1.70
2022-12-01T14:30:42.422Z,1.66
2022-12-01T14:33:55.803Z,1.68
2022-12-01T14:36:35.364Z,1.67
2022-12-01T14:39:07.629Z,1.67
2022-12-01T14:41:43.383Z,1.71
2022-12-01T14:44:21.954Z,1.72
2022-12-01T14:46:55.663Z,1.73
2022-12-01T14:49:26.690Z,1.73
2022-12-01T14:52:00.026Z,1.74
2022-12-01T14:54:31.201Z,1.72
2022-12-01T14:57:06.254Z,1.72
2022-12-01T14:59:36.505Z,1.70
2022-12-01T15:02:09.150Z,1.69
2022-12-01T15:04:57.582Z,1.71
2022-12-01T15:07:26.951Z,1.72
2022-12-01T15:10:00.812Z,1.73
2022-12-01T15:12:30.657Z,1.73
2022-12-01T15:14:58.460Z,1.74
2022-12-01T15:17:32.018Z,1.76
2022-12-01T15:20:00.349Z,1.78
2022-12-01T15:22:31.913Z,1.80
2022-12-01T15:25:07.759Z,1.80
2022-12-01T15:27:35.606Z,1.79
2022-12-01T15:30:04.516Z,1.80
2022-12-01T15:32:35.126Z,1.80
2022-12-01T15:35:04.752Z,1.81
2022-12-01T15:37:42.884Z,1.83
2022-12-01T15:43:16.709Z,1.84
2022-12-01T15:45:50.762Z,1.87
2022-12-01T15:48:26.359Z,1.90
2022-12-01T15:51:07.654Z,1.92
2022-12-01T15:53:40.120Z,1.94
2022-12-01T15:56:10.901Z,1.97
2022-12-01T15:58:43.687Z,1.99
2022-12-01T16:01:14.046Z,2.02
2022-12-01T16:03:52.758Z,2.05
2022-12-01T16:06:23.296Z,2.06
2022-12-01T16:09:00.555Z,2.05
2022-12-01T16:11:29.132Z,2.08
2022-12-01T16:14:02.852Z,2.08
2022-12-01T16:16:44.929Z,2.07
2022-12-01T16:19:36.079Z,2.10
2022-12-01T16:22:15.866Z,2.11
2022-12-01T16:24:51.387Z,2.12
2022-12-01T16:27:23.494Z,2.15
2022-12-01T16:29:53.722Z,2.18
2022-12-01T16:32:23.789Z,2.16
2022-12-01T16:34:53.218Z,2.19
2022-12-01T16:37:21.631Z,2.19
2022-12-01T16:39:50.960Z,2.18
2022-12-01T16:42:21.653Z,2.23
2022-12-01T16:44:50.882Z,2.21
2022-12-01T16:47:20.769Z,2.22
2022-12-01T16:49:48.750Z,2.27
2022-12-01T16:55:20.414Z,2.27
2022-12-01T16:57:48.493Z,2.29
2022-12-01T17:00:17.182Z,2.34
2022-12-01T17:02:47.219Z,2.35
2022-12-01T17:05:16.273Z,2.34
2022-12-01T17:07:44.216Z,2.33
2022-12-01T17:10:14.451Z,2.34
2022-12-01T17:12:42.095Z,2.32
2022-12-01T17:15:10.417Z,2.33
2022-12-01T17:17:38.870Z,2.36
2022-12-01T17:20:08.386Z,2.35
2022-12-01T17:22:36.371Z,2.34
2022-12-01T17:25:05.627Z,2.35
2022-12-01T17:27:34.849Z,2.32
2022-12-01T17:30:03.262Z,2.32
2022-12-01T17:32:31.165Z,2.32
2022-12-01T17:34:59.054Z,2.30
2022-12-01T17:37:27.976Z,2.30
2022-12-01T17:39:56.001Z,2.28
2022-12-01T17:42:24.175Z,2.26
2022-12-01T17:44:53.360Z,2.25
2022-12-01T17:47:21.182Z,2.24
2022-12-01T17:49:49.027Z,2.25
2022-12-01T17:52:16.926Z,2.26
2022-12-01T17:54:44.789Z,2.25
2022-12-01T17:57:12.953Z,2.25
2022-12-01T17:59:41.193Z,2.24
2022-12-01T18:02:12.875Z,2.25
2022-12-01T18:04:42.001Z,2.27
2022-12-01T18:07:09.903Z,2.28
2022-12-01T18:09:37.860Z,2.28
2022-12-01T18:12:06.383Z,2.30
2022-12-01T18:14:34.631Z,2.32
2022-12-01T18:17:02.798Z,2.33
2022-12-01T18:19:32.230Z,2.34
2022-12-01T18:22:00.121Z,2.32
2022-12-01T18:24:27.967Z,2.32
2022-12-01T18:26:55.961Z,2.30
2022-12-01T18:29:26.143Z,2.26
2022-12-01T18:31:54.797Z,2.23
2022-12-01T18:34:22.811Z,2.19
2022-12-01T18:36:52.122Z,2.16
2022-12-01T18:39:19.949Z,2.14
2022-12-01T18:41:47.996Z,2.16
2022-12-01T18:44:16.054Z,2.14
2022-12-01T18:46:43.967Z,2.16
2022-12-01T18:49:12.914Z,2.17
2022-12-01T18:51:41.673Z,2.19
2022-12-01T18:54:15.193Z,2.23
2022-12-01T18:56:43.397Z,2.22
2022-12-01T18:59:12.998Z,2.24
2022-12-01T19:01:44.275Z,2.23
2022-12-01T19:04:13.332Z,2.22
2022-12-01T19:06:42.863Z,2.22
2022-12-01T19:09:13.708Z,2.22
2022-12-01T19:11:42.295Z,2.22
2022-12-01T19:14:14.418Z,2.21
2022-12-01T19:16:42.503Z,2.18
2022-12-01T19:19:10.800Z,2.18
2022-12-01T19:21:38.706Z,2.20
2022-12-01T19:24:07.336Z,2.18
2022-12-01T19:26:36.661Z,2.17
2022-12-01T19:29:04.900Z,2.17
2022-12-01T19:31:32.814Z,2.16
2022-12-01T19:34:00.686Z,2.16
2022-12-01T19:36:29.453Z,2.17
2022-12-01T19:38:58.023Z,2.13
2022-12-01T19:41:26.289Z,2.14
2022-12-01T19:43:56.065Z,2.16
2022-12-01T19:46:27.075Z,2.13
2022-12-01T19:48:56.591Z,2.13
2022-12-01T19:51:26.399Z,2.11
2022-12-01T19:53:55.442Z,2.05
2022-12-01T19:56:23.548Z,2.06
2022-12-01T19:58:51.443Z,2.01
2022-12-01T20:01:21.912Z,2.01
2022-12-01T20:03:52.330Z,1.98
2022-12-01T20:06:21.814Z,2.00
2022-12-01T20:08:50.066Z,2.00
2022-12-01T20:11:21.086Z,1.99
2022-12-01T20:13:49.269Z,1.98
2022-12-01T20:16:19.205Z,1.98
2022-12-01T20:18:49.598Z,1.98
2022-12-01T20:21:19.857Z,2.00
2022-12-01T20:23:49.381Z,2.00
2022-12-01T20:26:19.504Z,1.98
2022-12-01T20:28:51.447Z,1.98
2022-12-01T20:31:22.926Z,1.98
2022-12-01T20:33:54.404Z,1.97
2022-12-01T20:36:22.813Z,1.97
2022-12-01T20:38:50.655Z,1.97
2022-12-01T20:41:18.870Z,1.97
2022-12-01T20:43:46.706Z,1.98
2022-12-01T20:46:15.508Z,1.98
2022-12-01T20:48:43.979Z,1.96
2022-12-01T20:51:14.885Z,1.93
2022-12-01T20:53:59.544Z,1.94
2022-12-01T20:56:31.198Z,1.93
2022-12-01T20:58:59.750Z,1.90
2022-12-01T21:01:27.870Z,1.89
2022-12-01T21:03:55.934Z,1.89
2022-12-01T21:06:25.402Z,1.90
2022-12-01T21:08:53.296Z,1.89
2022-12-01T21:11:44.713Z,1.88
2022-12-01T21:14:16.583Z,1.87
2022-12-01T21:16:48.344Z,1.87
2022-12-01T21:19:22.973Z,1.90
2022-12-01T21:21:52.165Z,1.89
2022-12-01T21:24:22.342Z,1.89
2022-12-01T21:26:51.850Z,1.87
2022-12-01T21:29:22.426Z,1.90
2022-12-01T21:31:52.906Z,1.93
2022-12-01T21:34:23.046Z,1.93
2022-12-01T21:36:53.009Z,1.89
2022-12-01T21:39:22.618Z,1.93
2022-12-01T21:41:51.771Z,1.94
2022-12-01T21:44:21.558Z,1.96
2022-12-01T21:46:53.785Z,1.97
2022-12-01T21:49:23.317Z,1.98
2022-12-01T21:51:54.233Z,2.00
2022-12-01T21:54:23.524Z,2.01
2022-12-01T21:56:55.770Z,2.02
2022-12-01T21:59:24.707Z,2.03
2022-12-01T22:01:55.140Z,2.03
2022-12-01T22:04:25.786Z,2.04
2022-12-01T22:06:56.618Z,2.05
2022-12-01T22:13:10.274Z,2.03
2022-12-01T22:15:42.648Z,2.05
2022-12-01T22:18:20.224Z,2.04
2022-12-01T22:20:48.035Z,2.02
2022-12-01T22:23:17.432Z,2.01
2022-12-01T22:25:47.115Z,2.01
2022-12-01T22:28:24.590Z,1.99
2022-12-01T22:30:53.397Z,1.97
2022-12-01T22:33:23.794Z,1.95
2022-12-01T22:35:53.372Z,1.94
2022-12-01T22:38:33.981Z,1.93
2022-12-01T22:41:05.005Z,1.94
2022-12-01T22:43:47.335Z,1.92
2022-12-01T22:46:33.457Z,1.92
2022-12-01T22:49:09.189Z,1.95
2022-12-01T22:51:43.089Z,1.97
2022-12-01T22:54:35.350Z,1.99
2022-12-01T22:57:27.893Z,2.01
2022-12-01T22:59:56.666Z,2.03
2022-12-01T23:02:28.064Z,2.05
2022-12-01T23:04:59.835Z,2.05
2022-12-01T23:07:30.886Z,2.08
2022-12-01T23:10:06.045Z,2.09
2022-12-01T23:12:35.462Z,2.08
2022-12-01T23:15:17.686Z,2.08
2022-12-01T23:17:45.532Z,2.08
2022-12-01T23:20:27.404Z,2.09
2022-12-01T23:22:56.391Z,2.10
2022-12-01T23:25:27.397Z,2.11
2022-12-01T23:27:59.268Z,2.13
2022-12-01T23:30:27.595Z,2.13
2022-12-01T23:33:12.286Z,2.14
2022-12-01T23:35:47.826Z,2.15
2022-12-01T23:38:19.487Z,2.17
2022-12-01T23:40:50.422Z,2.16
2022-12-01T23:43:21.590Z,2.18
2022-12-01T23:45:52.396Z,2.18
2022-12-01T23:48:23.012Z,2.18
2022-12-01T23:50:53.849Z,2.18
2022-12-01T23:53:32.545Z,2.19
2022-12-01T23:56:05.807Z,2.20
2022-12-01T23:58:34.770Z,2.21
